createdAt,value
2018-02-23T06:19:32.022Z,52.35
2018-02-23T06:22:00.007Z,47.50
2018-02-23T06:24:27.525Z,54.35
2018-02-23T06:26:55.041Z,56.30
2018-02-23T06:29:22.525Z,53.72
2018-02-23T06:31:50.149Z,50.97
2018-02-23T06:34:17.696Z,50.30
2018-02-23T06:36:45.904Z,47.95
2018-02-23T06:39:14.568Z,50.47
2018-02-23T06:41:42.088Z,52.45
2018-02-23T06:44:09.785Z,47.85
2018-02-23T06:46:37.284Z,45.30
2018-02-23T06:49:05.640Z,52.60
2018-02-23T06:51:33.173Z,51.60
2018-02-23T06:54:02.096Z,49.65
2018-02-23T06:56:30.504Z,53.42
2018-02-23T06:58:58.029Z,51.88
2018-02-23T07:01:26.115Z,49.08
2018-02-23T07:03:55.251Z,48.53
2018-02-23T07:06:22.761Z,47.03
2018-02-23T07:08:50.401Z,50.22
2018-02-23T07:11:17.923Z,49.38
2018-02-23T07:13:46.324Z,48.38
2018-02-23T07:16:13.846Z,49.30
2018-02-23T07:18:42.114Z,51.30
2018-02-23T07:21:10.146Z,49.10
2018-02-23T07:23:37.763Z,49.30
2018-02-23T07:26:05.250Z,43.58
2018-02-23T07:28:32.765Z,46.80
2018-02-23T07:31:01.192Z,51.00
2018-02-23T07:33:28.711Z,51.33
2018-02-23T07:35:56.998Z,50.63
2018-02-23T07:38:25.361Z,49.38
2018-02-23T07:40:52.875Z,43.53
2018-02-23T07:43:20.372Z,46.10
2018-02-23T07:45:48.783Z,47.33
2018-02-23T07:48:16.295Z,48.55
2018-02-23T07:50:43.816Z,53.30
2018-02-23T07:53:11.299Z,44.15
2018-02-23T07:55:40.847Z,50.05
2018-02-23T07:58:08.346Z,46.65
2018-02-23T08:00:35.978Z,47.03
2018-02-23T08:03:03.512Z,49.70
2018-02-23T08:05:31.271Z,47.38
2018-02-23T08:07:59.672Z,47.62
2018-02-23T08:10:27.192Z,53.58
2018-02-23T08:12:54.723Z,52.38
2018-02-23T08:15:22.249Z,50.75
2018-02-23T08:17:49.763Z,46.35
2018-02-23T08:20:17.321Z,50.88
2018-02-23T08:22:44.843Z,46.72
2018-02-23T08:25:12.342Z,46.00
2018-02-23T08:27:39.872Z,45.78
2018-02-23T08:30:07.385Z,52.65
2018-02-23T08:32:34.885Z,44.88
2018-02-23T08:35:02.404Z,48.10
2018-02-23T08:37:30.083Z,46.17
2018-02-23T08:39:57.591Z,46.67
2018-02-23T08:42:25.100Z,49.47
2018-02-23T08:44:52.666Z,44.33
2018-02-23T08:47:20.185Z,44.17
2018-02-23T08:49:48.468Z,43.80
2018-02-23T08:52:16.727Z,42.47
2018-02-23T08:54:44.229Z,47.00
2018-02-23T08:57:11.802Z,44.55
2018-02-23T08:59:39.788Z,46.08
2018-02-23T09:02:07.317Z,45.10
2018-02-23T09:04:34.845Z,46.97
2018-02-23T09:07:03.219Z,43.92
2018-02-23T09:09:31.492Z,45.40
2018-02-23T09:11:59.248Z,43.83
2018-02-23T09:14:26.763Z,43.13
2018-02-23T09:16:54.401Z,47.25
2018-02-23T09:19:21.948Z,44.90
2018-02-23T09:21:49.466Z,42.33
2018-02-23T09:24:17.082Z,42.05
2018-02-23T09:26:44.705Z,45.00
2018-02-23T09:29:12.613Z,43.80
2018-02-23T09:31:41.106Z,44.33
2018-02-23T09:37:12.451Z,40.30
2018-02-23T09:39:40.795Z,45.15
2018-02-23T09:42:08.628Z,45.05
2018-02-23T09:44:36.256Z,45.75
2018-02-23T09:47:04.608Z,45.25
2018-02-23T09:49:32.134Z,43.87
2018-02-23T09:51:59.644Z,42.42
2018-02-23T09:54:27.153Z,39.97
2018-02-23T09:56:54.667Z,42.03
2018-02-23T09:59:22.468Z,47.15
2018-02-23T10:01:50.015Z,42.72
2018-02-23T10:04:17.668Z,44.85
2018-02-23T10:06:45.215Z,42.42
2018-02-23T10:09:12.890Z,47.35
2018-02-23T10:11:40.481Z,44.08
2018-02-23T10:14:08.010Z,46.83
2018-02-23T10:16:35.544Z,41.70
2018-02-23T10:19:03.152Z,47.33
2018-02-23T10:21:30.744Z,41.28
2018-02-23T10:23:58.311Z,53.53
2018-02-23T10:26:26.318Z,45.12
2018-02-23T10:28:55.227Z,44.30
2018-02-23T10:31:24.371Z,43.65
2018-02-23T10:33:52.350Z,43.40
2018-02-23T10:36:27.484Z,41.53
2018-02-23T10:38:55.701Z,43.45
2018-02-23T10:41:23.918Z,37.00
2018-02-23T10:43:52.118Z,42.60
2018-02-23T10:46:19.754Z,42.67
2018-02-23T10:48:47.456Z,40.58
2018-02-23T10:51:14.993Z,42.30
2018-02-23T10:53:42.536Z,39.15
2018-02-23T10:56:10.811Z,42.45
2018-02-23T10:58:39.093Z,44.95
2018-02-23T11:01:08.628Z,42.67
2018-02-23T11:03:36.258Z,42.85
2018-02-23T11:06:03.802Z,44.30
2018-02-23T11:08:31.369Z,43.00
2018-02-23T11:10:58.862Z,46.50
2018-02-23T11:13:26.435Z,46.30
2018-02-23T11:15:54.171Z,39.00
2018-02-23T11:18:22.000Z,41.35
2018-02-23T11:20:49.522Z,42.40
2018-02-23T11:23:17.002Z,41.30
2018-02-23T11:25:44.520Z,42.45
2018-02-23T11:28:12.049Z,45.88
2018-02-23T11:30:39.741Z,45.72
2018-02-23T11:33:07.276Z,41.45
2018-02-23T11:35:34.836Z,42.47
2018-02-23T11:38:03.103Z,39.70
2018-02-23T11:40:30.628Z,40.88
2018-02-23T11:42:59.095Z,41.15
2018-02-23T11:45:26.616Z,40.95
2018-02-23T11:47:54.143Z,39.60
2018-02-23T11:50:23.438Z,46.33
2018-02-23T11:52:50.974Z,42.50
2018-02-23T11:55:18.495Z,40.40
2018-02-23T11:57:46.182Z,40.80
2018-02-23T12:00:14.419Z,38.85
2018-02-23T12:02:42.062Z,40.33
2018-02-23T12:05:10.368Z,41.60
2018-02-23T12:07:38.441Z,42.70
2018-02-23T12:10:05.965Z,38.85
2018-02-23T12:12:33.465Z,41.00
2018-02-23T12:15:00.983Z,38.90
2018-02-23T12:17:29.988Z,40.65
2018-02-23T12:19:59.497Z,43.30
2018-02-23T12:22:27.022Z,39.28
2018-02-23T12:24:54.566Z,46.80
2018-02-23T12:27:22.635Z,42.60
2018-02-23T12:29:50.967Z,40.97
2018-02-23T12:32:22.029Z,40.45
2018-02-23T12:34:50.969Z,41.95
2018-02-23T12:37:19.698Z,41.08
2018-02-23T12:39:47.205Z,43.92
2018-02-23T12:42:14.938Z,44.53
2018-02-23T12:44:43.570Z,42.35
2018-02-23T12:47:13.178Z,39.28
2018-02-23T12:49:41.484Z,42.42
2018-02-23T12:52:10.183Z,39.13
2018-02-23T12:54:37.705Z,41.05
2018-02-23T12:57:05.413Z,40.40
2018-02-23T12:59:33.011Z,40.85
2018-02-23T13:02:00.518Z,43.95
2018-02-23T13:04:29.710Z,39.65
2018-02-23T13:06:57.655Z,40.63
2018-02-23T13:09:25.749Z,34.88
2018-02-23T13:11:53.277Z,42.88
2018-02-23T13:14:20.799Z,39.08
2018-02-23T13:16:49.277Z,42.62
2018-02-23T13:19:17.536Z,40.10
2018-02-23T13:21:46.593Z,43.55
2018-02-23T13:24:15.465Z,42.83
2018-02-23T13:26:42.990Z,44.97
2018-02-23T14:05:47.264Z,38.78
2018-02-23T14:08:15.589Z,37.50
2018-02-23T14:10:46.292Z,40.55
2018-02-23T14:13:13.832Z,37.20
2018-02-23T14:15:42.634Z,39.38
2018-02-23T14:18:10.925Z,40.28
2018-02-23T14:20:38.440Z,37.70
2018-02-23T14:23:05.984Z,37.92
2018-02-23T14:25:34.483Z,37.47
2018-02-23T14:28:02.053Z,41.88
2018-02-23T14:30:29.750Z,41.00
2018-02-23T14:32:58.827Z,41.05
2018-02-23T14:35:27.131Z,38.88
2018-02-23T14:37:54.643Z,42.38
2018-02-23T14:40:22.151Z,39.22
2018-02-23T14:42:49.688Z,38.22
2018-02-23T14:45:18.101Z,38.47
2018-02-23T14:47:46.024Z,37.70
2018-02-23T14:50:26.133Z,41.37
2018-02-23T14:52:53.693Z,41.85
2018-02-23T14:55:21.191Z,39.08
2018-02-23T14:57:49.614Z,42.92
2018-02-23T15:00:17.133Z,37.65
2018-02-23T15:02:44.813Z,42.00
2018-02-23T15:05:12.331Z,37.25
2018-02-23T15:07:39.846Z,38.10
2018-02-23T15:10:07.371Z,40.33
2018-02-23T15:12:35.024Z,37.50
2018-02-23T15:15:03.813Z,40.65
2018-02-23T15:17:31.322Z,38.45
2018-02-23T15:19:58.840Z,38.28
2018-02-23T15:22:28.047Z,37.45
2018-02-23T15:24:55.577Z,37.42
2018-02-23T15:27:23.264Z,40.40
2018-02-23T15:29:50.798Z,39.17
2018-02-23T15:32:39.425Z,38.65
2018-02-23T15:35:08.776Z,38.95
2018-02-23T15:37:36.272Z,41.30
2018-02-23T15:40:03.836Z,37.47
2018-02-23T15:42:31.376Z,39.67
2018-02-23T15:44:59.305Z,40.72
2018-02-23T15:47:30.299Z,41.67
2018-02-23T15:49:59.328Z,39.97
2018-02-23T15:52:26.861Z,40.60
2018-02-23T15:54:54.388Z,37.97
2018-02-23T15:57:36.800Z,39.03
2018-02-23T16:00:04.344Z,39.72
2018-02-23T16:02:31.901Z,41.55
2018-02-23T16:04:59.454Z,38.72
2018-02-23T16:07:26.986Z,36.53
2018-02-23T16:09:56.831Z,42.38
2018-02-23T16:12:24.359Z,45.28
2018-02-23T16:14:51.897Z,39.85
2018-02-23T16:17:19.400Z,35.50
2018-02-23T16:19:46.951Z,40.40
2018-02-23T16:22:15.370Z,40.28
2018-02-23T16:24:42.948Z,40.75
2018-02-23T16:27:10.444Z,42.67
2018-02-23T16:29:39.042Z,48.10
2018-02-23T16:32:06.928Z,45.53
2018-02-23T16:34:34.482Z,40.65
2018-02-23T16:37:02.035Z,41.67
2018-02-23T16:39:29.584Z,44.83
2018-02-23T16:41:57.252Z,42.35
2018-02-23T16:44:24.815Z,47.33
2018-02-23T16:46:52.363Z,54.35
2018-02-23T16:49:20.702Z,40.85
2018-02-23T16:51:49.042Z,40.53
2018-02-23T16:54:16.709Z,41.25
2018-02-23T16:56:44.224Z,43.33
2018-02-23T16:59:11.925Z,45.63
2018-02-23T17:01:39.456Z,46.05
2018-02-23T17:04:07.753Z,44.83
2018-02-23T17:06:35.298Z,44.53
2018-02-23T17:09:02.940Z,48.80
2018-02-23T17:11:30.459Z,47.97
2018-02-23T17:13:58.063Z,48.85
2018-02-23T17:16:26.758Z,48.65
2018-02-23T17:18:54.279Z,47.67
2018-02-23T17:21:21.987Z,46.00
2018-02-23T17:23:49.611Z,48.58
2018-02-23T17:26:17.162Z,46.47
2018-02-23T17:28:44.690Z,43.10
2018-02-23T17:31:12.314Z,46.58
2018-02-23T17:33:39.822Z,49.58
2018-02-23T17:36:07.329Z,52.38
2018-02-23T17:38:34.861Z,51.88
2018-02-23T17:41:02.385Z,52.35
2018-02-23T17:43:30.055Z,55.33
2018-02-23T17:45:57.554Z,49.55
2018-02-23T17:48:25.844Z,47.53
2018-02-23T17:50:54.130Z,46.05
2018-02-23T17:53:21.666Z,52.80
2018-02-23T17:55:49.190Z,49.65
2018-02-23T17:58:16.686Z,44.80
2018-02-23T18:00:45.076Z,49.47
2018-02-23T18:03:12.593Z,53.63
2018-02-23T18:05:40.126Z,48.13
2018-02-23T18:08:07.701Z,48.72
2018-02-23T18:10:35.339Z,46.80
2018-02-23T18:13:02.858Z,50.97
2018-02-23T18:15:30.569Z,53.25
2018-02-23T18:17:58.094Z,56.85
2018-02-23T18:20:25.646Z,65.20
2018-02-23T18:22:53.196Z,89.97
2018-02-23T18:25:21.145Z,77.60
2018-02-23T18:27:48.802Z,49.10
2018-02-23T18:30:16.310Z,53.15
2018-02-23T18:32:43.979Z,49.00
2018-02-23T18:35:11.498Z,50.67
2018-02-23T18:37:40.029Z,50.20
2018-02-23T18:40:07.553Z,49.13
2018-02-23T18:42:35.075Z,49.38
2018-02-23T18:45:02.681Z,46.60
2018-02-23T18:47:30.376Z,48.78
2018-02-23T18:49:57.987Z,49.53
2018-02-23T18:52:25.522Z,48.60
2018-02-23T18:54:54.251Z,47.47
2018-02-23T18:57:20.597Z,48.15
2018-02-23T18:59:48.128Z,45.80
2018-02-23T19:02:15.971Z,49.05
2018-02-23T19:04:44.287Z,47.97
2018-02-23T19:07:11.843Z,43.03
2018-02-23T19:09:39.430Z,51.00
2018-02-23T19:12:06.937Z,47.97
2018-02-23T19:14:35.220Z,48.38
2018-02-23T19:17:03.550Z,49.85
2018-02-23T19:19:31.293Z,47.17
2018-02-23T19:21:58.972Z,46.88
2018-02-23T19:24:26.898Z,46.67
2018-02-23T19:26:54.450Z,45.15
2018-02-23T19:29:22.775Z,51.70
2018-02-23T19:31:50.267Z,46.47
2018-02-23T19:34:17.877Z,45.15
2018-02-23T19:36:45.392Z,44.92
2018-02-23T19:39:12.956Z,49.15
2018-02-23T19:41:40.462Z,48.47
2018-02-23T19:44:08.089Z,50.20
2018-02-23T19:46:35.614Z,43.85
2018-02-23T19:49:03.139Z,46.83
2018-02-23T19:51:30.643Z,46.65
2018-02-23T19:53:58.954Z,44.88
2018-02-23T19:56:26.485Z,45.45
2018-02-23T19:58:54.764Z,47.28
2018-02-23T20:01:23.178Z,49.95
2018-02-23T20:03:50.740Z,47.35
2018-02-23T20:06:18.269Z,47.35
2018-02-23T20:08:46.572Z,43.13
2018-02-23T20:11:14.126Z,42.90
2018-02-23T20:13:41.832Z,41.22
2018-02-23T20:16:09.621Z,47.17
2018-02-23T20:18:37.907Z,45.25
2018-02-23T20:21:06.262Z,42.95
2018-02-23T20:23:33.975Z,43.13
2018-02-23T20:26:01.523Z,43.15
2018-02-23T20:28:29.179Z,44.95
2018-02-23T20:30:56.724Z,43.50
2018-02-23T20:33:24.268Z,42.97
2018-02-23T20:35:51.784Z,49.28
2018-02-23T20:38:19.303Z,45.95
2018-02-23T20:40:46.796Z,46.63
2018-02-23T20:43:14.320Z,47.10
2018-02-23T20:45:41.877Z,41.63
2018-02-23T20:48:09.432Z,47.05
2018-02-23T20:50:36.979Z,46.08
2018-02-23T20:53:04.530Z,45.10
2018-02-23T20:55:32.268Z,47.38
2018-02-23T20:57:59.781Z,46.03
2018-02-23T21:00:27.327Z,46.80
2018-02-23T21:02:54.959Z,49.15
2018-02-23T21:05:22.586Z,50.88
2018-02-23T21:07:50.804Z,52.28
2018-02-23T21:10:18.569Z,48.90
2018-02-23T21:12:46.276Z,48.08
2018-02-23T21:15:14.112Z,55.70
2018-02-23T21:17:41.724Z,50.83
2018-02-23T21:20:09.290Z,49.60
2018-02-23T21:22:36.910Z,45.53
2018-02-23T21:25:04.426Z,54.92
2018-02-23T21:27:31.993Z,47.13
2018-02-23T21:30:00.574Z,51.53
2018-02-23T21:32:28.124Z,51.60
2018-02-23T21:34:55.803Z,51.72
2018-02-23T21:37:23.754Z,49.58
2018-02-23T21:39:52.115Z,49.20
2018-02-23T21:42:19.706Z,54.05
2018-02-23T21:44:47.692Z,51.80
2018-02-23T21:47:15.316Z,56.63
2018-02-23T21:49:42.955Z,58.58
2018-02-23T21:52:12.657Z,53.53
2018-02-23T21:54:43.523Z,51.47
2018-02-23T21:57:15.209Z,54.38
2018-02-23T21:59:44.849Z,54.72
2018-02-23T22:02:13.435Z,50.03
2018-02-23T22:04:41.532Z,50.00
2018-02-23T22:07:15.095Z,51.05
2018-02-23T22:09:47.276Z,50.60
2018-02-23T22:12:18.256Z,49.28
2018-02-23T22:14:49.834Z,54.15
2018-02-23T22:17:19.228Z,52.55
2018-02-23T22:19:46.938Z,51.35
2018-02-23T22:22:15.541Z,51.97
2018-02-23T22:24:43.933Z,50.97
2018-02-23T22:27:15.526Z,49.28
2018-02-23T22:29:45.258Z,54.85
